sensor_id;sensor_type;location;lat;lon;timestamp;pressure;altitude;pressure_sealevel;temperature;humidity
25944;BME280;13742;49.306;8.636;2023-02-16T00:00:32;101691.88;;;0.84;99.96
25944;BME280;13742;49.306;8.636;2023-02-16T00:01:32;101687.78;;;0.82;99.96
25944;BME280;13742;49.306;8.636;2023-02-16T00:02:32;101686.76;;;0.82;99.96
25944;BME280;13742;49.306;8.636;2023-02-16T00:03:32;101684.26;;;0.80;99.96
25944;BME280;13742;49.306;8.636;2023-02-16T00:04:32;101686.86;;;0.80;100.00
25944;BME280;13742;49.306;8.636;2023-02-16T00:05:33;101686.98;;;0.80;99.79
25944;BME280;13742;49.306;8.636;2023-02-16T00:06:31;101689.30;;;0.78;99.69
25944;BME280;13742;49.306;8.636;2023-02-16T00:07:31;101681.61;;;0.77;99.87
25944;BME280;13742;49.306;8.636;2023-02-16T00:08:31;101678.77;;;0.75;99.94
25944;BME280;13742;49.306;8.636;2023-02-16T00:09:31;101678.27;;;0.74;99.77
25944;BME280;13742;49.306;8.636;2023-02-16T00:10:32;101680.56;;;0.73;99.76
25944;BME280;13742;49.306;8.636;2023-02-16T00:11:37;101678.86;;;0.73;99.74
25944;BME280;13742;49.306;8.636;2023-02-16T00:12:37;101686.22;;;0.68;99.34
25944;BME280;13742;49.306;8.636;2023-02-16T00:13:37;101686.98;;;0.65;99.17
25944;BME280;13742;49.306;8.636;2023-02-16T00:14:35;101693.55;;;0.62;99.61
25944;BME280;13742;49.306;8.636;2023-02-16T00:15:32;101695.63;;;0.62;99.85
25944;BME280;13742;49.306;8.636;2023-02-16T00:16:32;101699.84;;;0.61;100.00
25944;BME280;13742;49.306;8.636;2023-02-16T00:17:31;101701.73;;;0.58;100.00
25944;BME280;13742;49.306;8.636;2023-02-16T00:18:31;101704.73;;;0.51;100.00
25944;BME280;13742;49.306;8.636;2023-02-16T00:19:35;101701.50;;;0.52;100.00
25944;BME280;13742;49.306;8.636;2023-02-16T00:20:31;101696.48;;;0.53;100.00
25944;BME280;13742;49.306;8.636;2023-02-16T00:21:31;101685.56;;;0.53;100.00
25944;BME280;13742;49.306;8.636;2023-02-16T00:22:32;101684.42;;;0.55;100.00
25944;BME280;13742;49.306;8.636;2023-02-16T00:23:31;101679.73;;;0.54;100.00
25944;BME280;13742;49.306;8.636;2023-02-16T00:24:31;101681.78;;;0.55;100.00
25944;BME280;13742;49.306;8.636;2023-02-16T00:25:31;101677.52;;;0.56;100.00
25944;BME280;13742;49.306;8.636;2023-02-16T00:26:32;101680.93;;;0.56;100.00
25944;BME280;13742;49.306;8.636;2023-02-16T00:27:31;101688.49;;;0.56;100.00
25944;BME280;13742;49.306;8.636;2023-02-16T00:28:32;101692.70;;;0.53;100.00
25944;BME280;13742;49.306;8.636;2023-02-16T00:29:35;101696.66;;;0.53;100.00
25944;BME280;13742;49.306;8.636;2023-02-16T00:30:31;101697.61;;;0.54;100.00
25944;BME280;13742;49.306;8.636;2023-02-16T00:31:31;101699.50;;;0.54;100.00
25944;BME280;13742;49.306;8.636;2023-02-16T00:32:31;101698.84;;;0.55;100.00
25944;BME280;13742;49.306;8.636;2023-02-16T00:33:31;101693.02;;;0.54;100.00
25944;BME280;13742;49.306;8.636;2023-02-16T00:34:32;101694.25;;;0.56;100.00
25944;BME280;13742;49.306;8.636;2023-02-16T00:35:31;101691.43;;;0.54;100.00
25944;BME280;13742;49.306;8.636;2023-02-16T00:36:31;101691.01;;;0.49;100.00
25944;BME280;13742;49.306;8.636;2023-02-16T00:37:31;101691.13;;;0.49;100.00
25944;BME280;13742;49.306;8.636;2023-02-16T00:38:31;101687.94;;;0.50;100.00
25944;BME280;13742;49.306;8.636;2023-02-16T00:39:32;101686.61;;;0.51;100.00
25944;BME280;13742;49.306;8.636;2023-02-16T00:40:32;101687.34;;;0.51;100.00
25944;BME280;13742;49.306;8.636;2023-02-16T00:41:37;101688.06;;;0.50;100.00
25944;BME280;13742;49.306;8.636;2023-02-16T00:42:32;101685.17;;;0.43;100.00
25944;BME280;13742;49.306;8.636;2023-02-16T00:43:31;101683.21;;;0.35;100.00
25944;BME280;13742;49.306;8.636;2023-02-16T00:44:33;101678.03;;;0.38;100.00
25944;BME280;13742;49.306;8.636;2023-02-16T00:45:35;101676.05;;;0.39;100.00
25944;BME280;13742;49.306;8.636;2023-02-16T00:46:31;101680.30;;;0.40;100.00
25944;BME280;13742;49.306;8.636;2023-02-16T00:47:35;101680.11;;;0.41;100.00
25944;BME280;13742;49.306;8.636;2023-02-16T00:48:31;101680.70;;;0.42;100.00
25944;BME280;13742;49.306;8.636;2023-02-16T00:49:31;101678.16;;;0.44;100.00
25944;BME280;13742;49.306;8.636;2023-02-16T00:50:32;101676.65;;;0.43;100.00
25944;BME280;13742;49.306;8.636;2023-02-16T00:51:31;101678.97;;;0.43;100.00
25944;BME280;13742;49.306;8.636;2023-02-16T00:52:36;101682.70;;;0.43;100.00
25944;BME280;13742;49.306;8.636;2023-02-16T00:53:31;101686.52;;;0.43;100.00
25944;BME280;13742;49.306;8.636;2023-02-16T00:54:31;101691.77;;;0.44;100.00
25944;BME280;13742;49.306;8.636;2023-02-16T00:55:33;101697.13;;;0.43;100.00
25944;BME280;13742;49.306;8.636;2023-02-16T00:56:32;101695.92;;;0.42;100.00
25944;BME280;13742;49.306;8.636;2023-02-16T00:57:36;101697.18;;;0.42;100.00
25944;BME280;13742;49.306;8.636;2023-02-16T00:58:34;101700.61;;;0.43;100.00
25944;BME280;13742;49.306;8.636;2023-02-16T00:59:31;101700.19;;;0.42;100.00
25944;BME280;13742;49.306;8.636;2023-02-16T01:00:35;101702.56;;;0.43;100.00
25944;BME280;13742;49.306;8.636;2023-02-16T01:01:32;101704.19;;;0.43;100.00
25944;BME280;13742;49.306;8.636;2023-02-16T01:02:31;101701.91;;;0.43;100.00
25944;BME280;13742;49.306;8.636;2023-02-16T01:03:31;101704.49;;;0.42;100.00
25944;BME280;13742;49.306;8.636;2023-02-16T01:04:31;101703.20;;;0.42;100.00
25944;BME280;13742;49.306;8.636;2023-02-16T01:05:32;101702.89;;;0.41;100.00
25944;BME280;13742;49.306;8.636;2023-02-16T01:06:37;101706.66;;;0.40;100.00
25944;BME280;13742;49.306;8.636;2023-02-16T01:07:36;101706.72;;;0.40;100.00
25944;BME280;13742;49.306;8.636;2023-02-16T01:08:36;101699.61;;;0.39;100.00
25944;BME280;13742;49.306;8.636;2023-02-16T01:09:36;101697.05;;;0.39;100.00
25944;BME280;13742;49.306;8.636;2023-02-16T01:10:37;101697.06;;;0.40;100.00
25944;BME280;13742;49.306;8.636;2023-02-16T01:11:31;101700.13;;;0.41;100.00
25944;BME280;13742;49.306;8.636;2023-02-16T01:12:31;101700.14;;;0.42;100.00
25944;BME280;13742;49.306;8.636;2023-02-16T01:13:34;101698.92;;;0.41;100.00
25944;BME280;13742;49.306;8.636;2023-02-16T01:14:32;101698.89;;;0.42;100.00
25944;BME280;13742;49.306;8.636;2023-02-16T01:15:31;101700.94;;;0.43;100.00
25944;BME280;13742;49.306;8.636;2023-02-16T01:16:36;101699.59;;;0.43;100.00
25944;BME280;13742;49.306;8.636;2023-02-16T01:17:31;101695.78;;;0.43;100.00
25944;BME280;13742;49.306;8.636;2023-02-16T01:18:31;101697.32;;;0.43;100.00
25944;BME280;13742;49.306;8.636;2023-02-16T01:19:31;101698.41;;;0.42;100.00
25944;BME280;13742;49.306;8.636;2023-02-16T01:20:31;101697.16;;;0.43;100.00
25944;BME280;13742;49.306;8.636;2023-02-16T01:21:32;101694.55;;;0.42;100.00
25944;BME280;13742;49.306;8.636;2023-02-16T01:22:32;101694.97;;;0.43;100.00
25944;BME280;13742;49.306;8.636;2023-02-16T01:23:31;101692.42;;;0.44;100.00
25944;BME280;13742;49.306;8.636;2023-02-16T01:24:31;101689.97;;;0.45;100.00
25944;BME280;13742;49.306;8.636;2023-02-16T01:25:31;101687.08;;;0.45;100.00
25944;BME280;13742;49.306;8.636;2023-02-16T01:26:33;101689.98;;;0.46;100.00
25944;BME280;13742;49.306;8.636;2023-02-16T01:27:31;101686.81;;;0.46;100.00
25944;BME280;13742;49.306;8.636;2023-02-16T01:28:32;101686.89;;;0.46;100.00
25944;BME280;13742;49.306;8.636;2023-02-16T01:29:31;101689.00;;;0.46;100.00
25944;BME280;13742;49.306;8.636;2023-02-16T01:30:31;101689.44;;;0.45;100.00
25944;BME280;13742;49.306;8.636;2023-02-16T01:31:31;101688.16;;;0.44;100.00
25944;BME280;13742;49.306;8.636;2023-02-16T01:32:32;101687.16;;;0.44;100.00
25944;BME280;13742;49.306;8.636;2023-02-16T01:33:31;101692.19;;;0.44;100.00
25944;BME280;13742;49.306;8.636;2023-02-16T01:34:31;101693.03;;;0.46;100.00
25944;BME280;13742;49.306;8.636;2023-02-16T01:35:32;101693.06;;;0.46;100.00
25944;BME280;13742;49.306;8.636;2023-02-16T01:36:33;101695.65;;;0.45;100.00
25944;BME280;13742;49.306;8.636;2023-02-16T01:37:31;101699.96;;;0.45;100.00
25944;BME280;13742;49.306;8.636;2023-02-16T01:38:31;101696.80;;;0.46;100.00
25944;BME280;13742;49.306;8.636;2023-02-16T01:39:31;101692.69;;;0.45;100.00
25944;BME280;13742;49.306;8.636;2023-02-16T01:40:36;101692.16;;;0.45;100.00
25944;BME280;13742;49.306;8.636;2023-02-16T01:44:33;101684.20;;;0.40;100.00
25944;BME280;13742;49.306;8.636;2023-02-16T01:45:32;101689.52;;;0.40;100.00
25944;BME280;13742;49.306;8.636;2023-02-16T01:46:35;101688.58;;;0.40;100.00
25944;BME280;13742;49.306;8.636;2023-02-16T01:47:51;101690.27;;;0.39;100.00
25944;BME280;13742;49.306;8.636;2023-02-16T01:48:32;101691.17;;;0.38;100.00
25944;BME280;13742;49.306;8.636;2023-02-16T01:49:31;101691.70;;;0.37;100.00
25944;BME280;13742;49.306;8.636;2023-02-16T01:51:36;101688.59;;;0.38;100.00
25944;BME280;13742;49.306;8.636;2023-02-16T01:52:33;101684.44;;;0.38;100.00
25944;BME280;13742;49.306;8.636;2023-02-16T01:53:36;101686.64;;;0.38;100.00
25944;BME280;13742;49.306;8.636;2023-02-16T01:54:37;101689.11;;;0.38;100.00
25944;BME280;13742;49.306;8.636;2023-02-16T01:55:34;101688.44;;;0.39;100.00
25944;BME280;13742;49.306;8.636;2023-02-16T01:58:37;101680.84;;;0.35;100.00
25944;BME280;13742;49.306;8.636;2023-02-16T01:59:37;101677.67;;;0.34;100.00
25944;BME280;13742;49.306;8.636;2023-02-16T02:01:36;101676.25;;;0.30;100.00
25944;BME280;13742;49.306;8.636;2023-02-16T02:02:35;101678.08;;;0.29;100.00
25944;BME280;13742;49.306;8.636;2023-02-16T02:03:36;101673.69;;;0.29;100.00
25944;BME280;13742;49.306;8.636;2023-02-16T02:05:34;101678.87;;;0.30;100.00
25944;BME280;13742;49.306;8.636;2023-02-16T02:06:32;101675.73;;;0.30;100.00
25944;BME280;13742;49.306;8.636;2023-02-16T02:07:46;101677.86;;;0.29;100.00
25944;BME280;13742;49.306;8.636;2023-02-16T02:09:34;101678.11;;;0.27;100.00
25944;BME280;13742;49.306;8.636;2023-02-16T02:11:33;101687.75;;;0.18;100.00
25944;BME280;13742;49.306;8.636;2023-02-16T02:14:32;101671.45;;;0.20;100.00
25944;BME280;13742;49.306;8.636;2023-02-16T02:15:31;101674.19;;;0.21;100.00
25944;BME280;13742;49.306;8.636;2023-02-16T02:16:31;101672.65;;;0.21;100.00
25944;BME280;13742;49.306;8.636;2023-02-16T02:17:31;101671.52;;;0.22;100.00
25944;BME280;13742;49.306;8.636;2023-02-16T02:18:32;101663.44;;;0.22;100.00
25944;BME280;13742;49.306;8.636;2023-02-16T02:19:37;101664.24;;;0.21;100.00
25944;BME280;13742;49.306;8.636;2023-02-16T02:22:44;101661.58;;;0.19;100.00
25944;BME280;13742;49.306;8.636;2023-02-16T02:27:32;101656.66;;;0.19;100.00
25944;BME280;13742;49.306;8.636;2023-02-16T02:33:46;101647.11;;;0.12;100.00
25944;BME280;13742;49.306;8.636;2023-02-16T02:35:35;101644.64;;;0.12;100.00
25944;BME280;13742;49.306;8.636;2023-02-16T02:36:36;101649.27;;;0.12;100.00
25944;BME280;13742;49.306;8.636;2023-02-16T02:39:45;101644.71;;;0.14;100.00
25944;BME280;13742;49.306;8.636;2023-02-16T02:41:38;101644.69;;;0.15;100.00
25944;BME280;13742;49.306;8.636;2023-02-16T02:43:34;101638.34;;;0.17;100.00
25944;BME280;13742;49.306;8.636;2023-02-16T02:44:32;101642.63;;;0.16;100.00
25944;BME280;13742;49.306;8.636;2023-02-16T02:46:32;101641.81;;;0.16;100.00
25944;BME280;13742;49.306;8.636;2023-02-16T02:48:32;101645.50;;;0.15;100.00
25944;BME280;13742;49.306;8.636;2023-02-16T02:49:31;101647.43;;;0.16;100.00
25944;BME280;13742;49.306;8.636;2023-02-16T02:51:32;101648.16;;;0.11;100.00
25944;BME280;13742;49.306;8.636;2023-02-16T02:52:31;101648.86;;;0.10;100.00
25944;BME280;13742;49.306;8.636;2023-02-16T02:54:37;101652.03;;;0.12;100.00
25944;BME280;13742;49.306;8.636;2023-02-16T02:55:37;101654.52;;;0.13;100.00
25944;BME280;13742;49.306;8.636;2023-02-16T02:56:36;101657.72;;;0.12;100.00
25944;BME280;13742;49.306;8.636;2023-02-16T02:57:38;101656.27;;;0.11;100.00
25944;BME280;13742;49.306;8.636;2023-02-16T02:58:36;101655.38;;;0.11;100.00
25944;BME280;13742;49.306;8.636;2023-02-16T02:59:36;101656.94;;;0.12;100.00
25944;BME280;13742;49.306;8.636;2023-02-16T03:00:37;101653.66;;;0.12;100.00
25944;BME280;13742;49.306;8.636;2023-02-16T03:01:32;101650.56;;;0.10;100.00
25944;BME280;13742;49.306;8.636;2023-02-16T03:02:31;101652.66;;;0.09;100.00
25944;BME280;13742;49.306;8.636;2023-02-16T03:03:32;101650.20;;;0.08;100.00
25944;BME280;13742;49.306;8.636;2023-02-16T03:04:31;101650.20;;;0.07;100.00
25944;BME280;13742;49.306;8.636;2023-02-16T03:05:32;101649.95;;;0.07;100.00
25944;BME280;13742;49.306;8.636;2023-02-16T03:06:33;101647.23;;;0.05;100.00
25944;BME280;13742;49.306;8.636;2023-02-16T03:07:36;101645.72;;;0.04;100.00
25944;BME280;13742;49.306;8.636;2023-02-16T03:08:32;101650.96;;;0.05;100.00
25944;BME280;13742;49.306;8.636;2023-02-16T03:09:31;101650.84;;;0.03;100.00
25944;BME280;13742;49.306;8.636;2023-02-16T03:10:36;101649.53;;;0.04;100.00
25944;BME280;13742;49.306;8.636;2023-02-16T03:11:36;101649.34;;;0.03;100.00
25944;BME280;13742;49.306;8.636;2023-02-16T03:12:36;101650.39;;;0.05;100.00
25944;BME280;13742;49.306;8.636;2023-02-16T03:13:36;101649.44;;;0.04;100.00
25944;BME280;13742;49.306;8.636;2023-02-16T03:15:31;101650.70;;;0.06;100.00
25944;BME280;13742;49.306;8.636;2023-02-16T03:17:36;101651.17;;;0.06;100.00
25944;BME280;13742;49.306;8.636;2023-02-16T03:18:36;101645.84;;;0.05;100.00
25944;BME280;13742;49.306;8.636;2023-02-16T03:19:37;101644.77;;;0.03;100.00
25944;BME280;13742;49.306;8.636;2023-02-16T03:20:36;101647.09;;;0.02;100.00
25944;BME280;13742;49.306;8.636;2023-02-16T03:21:36;101647.10;;;0.00;100.00
25944;BME280;13742;49.306;8.636;2023-02-16T03:22:36;101654.05;;;0.02;100.00
25944;BME280;13742;49.306;8.636;2023-02-16T03:23:37;101650.89;;;0.01;100.00
25944;BME280;13742;49.306;8.636;2023-02-16T03:24:36;101649.92;;;-0.01;100.00
25944;BME280;13742;49.306;8.636;2023-02-16T03:25:37;101652.27;;;-0.04;100.00
25944;BME280;13742;49.306;8.636;2023-02-16T03:26:36;101651.96;;;-0.05;100.00
25944;BME280;13742;49.306;8.636;2023-02-16T03:27:37;101647.27;;;-0.06;100.00
25944;BME280;13742;49.306;8.636;2023-02-16T03:28:37;101647.91;;;-0.08;100.00
25944;BME280;13742;49.306;8.636;2023-02-16T03:29:31;101644.33;;;-0.11;100.00
25944;BME280;13742;49.306;8.636;2023-02-16T03:30:31;101648.16;;;-0.12;100.00
25944;BME280;13742;49.306;8.636;2023-02-16T03:31:33;101646.58;;;-0.12;100.00
25944;BME280;13742;49.306;8.636;2023-02-16T03:32:31;101644.95;;;-0.12;100.00
25944;BME280;13742;49.306;8.636;2023-02-16T03:33:31;101645.16;;;-0.10;100.00
25944;BME280;13742;49.306;8.636;2023-02-16T03:34:31;101647.89;;;-0.10;100.00
25944;BME280;13742;49.306;8.636;2023-02-16T03:35:31;101651.76;;;-0.09;100.00
25944;BME280;13742;49.306;8.636;2023-02-16T03:36:32;101649.20;;;-0.11;100.00
25944;BME280;13742;49.306;8.636;2023-02-16T03:37:31;101650.64;;;-0.10;100.00
25944;BME280;13742;49.306;8.636;2023-02-16T03:38:31;101649.09;;;-0.08;100.00
25944;BME280;13742;49.306;8.636;2023-02-16T03:39:47;101648.28;;;-0.08;100.00
25944;BME280;13742;49.306;8.636;2023-02-16T03:40:33;101651.47;;;-0.07;100.00
25944;BME280;13742;49.306;8.636;2023-02-16T03:42:31;101648.28;;;-0.04;100.00
25944;BME280;13742;49.306;8.636;2023-02-16T03:43:31;101650.77;;;-0.05;100.00
25944;BME280;13742;49.306;8.636;2023-02-16T03:44:31;101648.97;;;-0.06;100.00
25944;BME280;13742;49.306;8.636;2023-02-16T03:45:32;101652.74;;;-0.06;100.00
25944;BME280;13742;49.306;8.636;2023-02-16T03:46:31;101654.45;;;-0.08;100.00
25944;BME280;13742;49.306;8.636;2023-02-16T03:47:31;101653.09;;;-0.09;100.00
25944;BME280;13742;49.306;8.636;2023-02-16T03:48:31;101650.30;;;-0.09;100.00
25944;BME280;13742;49.306;8.636;2023-02-16T03:49:31;101656.41;;;-0.09;100.00
25944;BME280;13742;49.306;8.636;2023-02-16T03:50:31;101653.35;;;-0.10;100.00
25944;BME280;13742;49.306;8.636;2023-02-16T03:51:31;101652.57;;;-0.09;100.00
25944;BME280;13742;49.306;8.636;2023-02-16T03:52:31;101658.45;;;-0.09;100.00
25944;BME280;13742;49.306;8.636;2023-02-16T03:53:31;101658.09;;;-0.07;100.00
25944;BME280;13742;49.306;8.636;2023-02-16T03:54:31;101657.65;;;-0.06;100.00
25944;BME280;13742;49.306;8.636;2023-02-16T03:56:31;101660.20;;;-0.04;100.00
25944;BME280;13742;49.306;8.636;2023-02-16T03:57:31;101658.92;;;-0.04;100.00
25944;BME280;13742;49.306;8.636;2023-02-16T03:58:32;101657.59;;;-0.03;100.00
25944;BME280;13742;49.306;8.636;2023-02-16T03:59:31;101655.47;;;-0.02;100.00
25944;BME280;13742;49.306;8.636;2023-02-16T04:00:32;101655.45;;;-0.01;100.00
25944;BME280;13742;49.306;8.636;2023-02-16T04:01:31;101659.55;;;0.02;100.00
25944;BME280;13742;49.306;8.636;2023-02-16T04:02:31;101657.98;;;0.00;100.00
25944;BME280;13742;49.306;8.636;2023-02-16T04:03:32;101658.63;;;0.02;100.00
25944;BME280;13742;49.306;8.636;2023-02-16T04:04:31;101658.64;;;0.03;100.00
25944;BME280;13742;49.306;8.636;2023-02-16T04:05:31;101657.83;;;0.03;100.00
25944;BME280;13742;49.306;8.636;2023-02-16T04:06:31;101659.31;;;0.05;100.00
25944;BME280;13742;49.306;8.636;2023-02-16T04:07:31;101659.37;;;0.05;100.00
25944;BME280;13742;49.306;8.636;2023-02-16T04:08:31;101662.11;;;0.06;100.00
25944;BME280;13742;49.306;8.636;2023-02-16T04:09:31;101659.11;;;0.07;100.00
25944;BME280;13742;49.306;8.636;2023-02-16T04:10:31;101662.57;;;0.07;100.00
25944;BME280;13742;49.306;8.636;2023-02-16T04:11:36;101663.65;;;0.08;100.00
25944;BME280;13742;49.306;8.636;2023-02-16T04:12:36;101667.30;;;0.08;100.00
25944;BME280;13742;49.306;8.636;2023-02-16T04:13:31;101664.47;;;0.09;100.00
25944;BME280;13742;49.306;8.636;2023-02-16T04:14:31;101664.33;;;0.08;100.00
25944;BME280;13742;49.306;8.636;2023-02-16T04:15:31;101661.94;;;0.08;100.00
25944;BME280;13742;49.306;8.636;2023-02-16T04:16:31;101663.66;;;0.09;100.00
25944;BME280;13742;49.306;8.636;2023-02-16T04:17:31;101664.95;;;0.11;100.00
25944;BME280;13742;49.306;8.636;2023-02-16T04:18:31;101661.18;;;0.11;100.00
25944;BME280;13742;49.306;8.636;2023-02-16T04:19:31;101661.22;;;0.13;100.00
25944;BME280;13742;49.306;8.636;2023-02-16T04:20:32;101655.66;;;0.13;100.00
25944;BME280;13742;49.306;8.636;2023-02-16T04:21:31;101655.67;;;0.14;100.00
25944;BME280;13742;49.306;8.636;2023-02-16T04:22:31;101651.63;;;0.13;100.00
25944;BME280;13742;49.306;8.636;2023-02-16T04:23:31;101651.89;;;0.11;100.00
25944;BME280;13742;49.306;8.636;2023-02-16T04:24:31;101649.87;;;0.12;100.00
25944;BME280;13742;49.306;8.636;2023-02-16T04:25:31;101655.15;;;0.12;100.00
25944;BME280;13742;49.306;8.636;2023-02-16T04:26:32;101651.45;;;0.12;100.00
25944;BME280;13742;49.306;8.636;2023-02-16T04:27:31;101655.06;;;0.12;100.00
25944;BME280;13742;49.306;8.636;2023-02-16T04:28:31;101657.55;;;0.12;100.00
25944;BME280;13742;49.306;8.636;2023-02-16T04:29:31;101657.59;;;0.12;100.00
25944;BME280;13742;49.306;8.636;2023-02-16T04:30:31;101661.13;;;0.12;100.00
25944;BME280;13742;49.306;8.636;2023-02-16T04:31:31;101667.63;;;0.13;100.00
25944;BME280;13742;49.306;8.636;2023-02-16T04:32:32;101663.94;;;0.13;100.00
25944;BME280;13742;49.306;8.636;2023-02-16T04:33:31;101664.69;;;0.14;100.00
25944;BME280;13742;49.306;8.636;2023-02-16T04:34:31;101663.53;;;0.15;100.00
25944;BME280;13742;49.306;8.636;2023-02-16T04:35:31;101656.88;;;0.15;100.00
25944;BME280;13742;49.306;8.636;2023-02-16T04:36:33;101656.22;;;0.15;100.00
25944;BME280;13742;49.306;8.636;2023-02-16T04:37:31;101658.86;;;0.15;100.00
25944;BME280;13742;49.306;8.636;2023-02-16T04:38:31;101659.78;;;0.14;100.00
25944;BME280;13742;49.306;8.636;2023-02-16T04:39:31;101661.80;;;0.16;100.00
25944;BME280;13742;49.306;8.636;2023-02-16T04:40:31;101663.23;;;0.17;100.00
25944;BME280;13742;49.306;8.636;2023-02-16T04:41:31;101662.61;;;0.16;100.00
25944;BME280;13742;49.306;8.636;2023-02-16T04:42:31;101662.72;;;0.18;100.00
25944;BME280;13742;49.306;8.636;2023-02-16T04:43:32;101662.03;;;0.18;100.00
25944;BME280;13742;49.306;8.636;2023-02-16T04:44:31;101659.56;;;0.18;100.00
25944;BME280;13742;49.306;8.636;2023-02-16T04:45:31;101659.39;;;0.20;100.00
25944;BME280;13742;49.306;8.636;2023-02-16T04:46:31;101658.38;;;0.22;100.00
25944;BME280;13742;49.306;8.636;2023-02-16T04:47:31;101660.26;;;0.23;100.00
25944;BME280;13742;49.306;8.636;2023-02-16T04:48:31;101660.80;;;0.21;100.00
25944;BME280;13742;49.306;8.636;2023-02-16T04:49:31;101659.09;;;0.21;100.00
25944;BME280;13742;49.306;8.636;2023-02-16T04:50:31;101658.91;;;0.22;100.00
25944;BME280;13742;49.306;8.636;2023-02-16T04:51:31;101653.35;;;0.23;100.00
25944;BME280;13742;49.306;8.636;2023-02-16T04:52:33;101654.85;;;0.22;100.00
25944;BME280;13742;49.306;8.636;2023-02-16T04:53:31;101657.02;;;0.24;100.00
25944;BME280;13742;49.306;8.636;2023-02-16T04:54:31;101656.26;;;0.26;100.00
25944;BME280;13742;49.306;8.636;2023-02-16T04:55:31;101656.32;;;0.28;100.00
25944;BME280;13742;49.306;8.636;2023-02-16T04:56:31;101657.93;;;0.27;100.00
25944;BME280;13742;49.306;8.636;2023-02-16T04:57:31;101653.89;;;0.26;100.00
25944;BME280;13742;49.306;8.636;2023-02-16T04:58:31;101654.62;;;0.25;100.00
25944;BME280;13742;49.306;8.636;2023-02-16T04:59:31;101652.52;;;0.26;100.00
25944;BME280;13742;49.306;8.636;2023-02-16T05:00:31;101652.81;;;0.26;100.00
25944;BME280;13742;49.306;8.636;2023-02-16T05:01:31;101653.58;;;0.27;100.00
25944;BME280;13742;49.306;8.636;2023-02-16T05:02:31;101646.80;;;0.26;100.00
25944;BME280;13742;49.306;8.636;2023-02-16T05:03:31;101648.34;;;0.24;100.00
25944;BME280;13742;49.306;8.636;2023-02-16T05:04:31;101648.59;;;0.22;100.00
25944;BME280;13742;49.306;8.636;2023-02-16T05:05:32;101648.22;;;0.21;100.00
25944;BME280;13742;49.306;8.636;2023-02-16T05:06:31;101649.03;;;0.21;100.00
25944;BME280;13742;49.306;8.636;2023-02-16T05:07:31;101650.48;;;0.21;100.00
25944;BME280;13742;49.306;8.636;2023-02-16T05:08:31;101652.09;;;0.22;100.00
25944;BME280;13742;49.306;8.636;2023-02-16T05:09:31;101655.25;;;0.25;100.00
25944;BME280;13742;49.306;8.636;2023-02-16T05:10:31;101654.56;;;0.27;100.00
25944;BME280;13742;49.306;8.636;2023-02-16T05:11:36;101655.28;;;0.26;100.00
25944;BME280;13742;49.306;8.636;2023-02-16T05:12:36;101656.13;;;0.30;100.00
25944;BME280;13742;49.306;8.636;2023-02-16T05:13:36;101660.98;;;0.31;100.00
25944;BME280;13742;49.306;8.636;2023-02-16T05:14:36;101658.47;;;0.32;100.00
25944;BME280;13742;49.306;8.636;2023-02-16T05:15:31;101666.81;;;0.33;100.00
25944;BME280;13742;49.306;8.636;2023-02-16T05:16:31;101666.80;;;0.32;100.00
25944;BME280;13742;49.306;8.636;2023-02-16T05:17:31;101663.23;;;0.31;100.00
25944;BME280;13742;49.306;8.636;2023-02-16T05:18:31;101662.52;;;0.32;100.00
25944;BME280;13742;49.306;8.636;2023-02-16T05:19:31;101660.73;;;0.32;100.00
25944;BME280;13742;49.306;8.636;2023-02-16T05:20:36;101660.14;;;0.32;100.00
25944;BME280;13742;49.306;8.636;2023-02-16T05:21:31;101659.34;;;0.33;100.00
25944;BME280;13742;49.306;8.636;2023-02-16T05:22:33;101659.59;;;0.34;100.00
25944;BME280;13742;49.306;8.636;2023-02-16T05:23:31;101662.67;;;0.35;100.00
25944;BME280;13742;49.306;8.636;2023-02-16T05:24:33;101662.61;;;0.37;100.00
25944;BME280;13742;49.306;8.636;2023-02-16T05:25:31;101658.22;;;0.37;100.00
25944;BME280;13742;49.306;8.636;2023-02-16T05:26:32;101660.19;;;0.37;100.00
25944;BME280;13742;49.306;8.636;2023-02-16T05:27:31;101662.82;;;0.37;100.00
25944;BME280;13742;49.306;8.636;2023-02-16T05:28:31;101661.34;;;0.36;100.00
25944;BME280;13742;49.306;8.636;2023-02-16T05:29:31;101662.78;;;0.37;100.00
25944;BME280;13742;49.306;8.636;2023-02-16T05:30:31;101660.66;;;0.37;100.00
25944;BME280;13742;49.306;8.636;2023-02-16T05:31:31;101659.75;;;0.38;100.00
25944;BME280;13742;49.306;8.636;2023-02-16T05:32:31;101662.82;;;0.37;100.00
25944;BME280;13742;49.306;8.636;2023-02-16T05:33:31;101667.95;;;0.38;100.00
25944;BME280;13742;49.306;8.636;2023-02-16T05:34:31;101667.49;;;0.37;100.00
25944;BME280;13742;49.306;8.636;2023-02-16T05:35:32;101666.95;;;0.39;100.00
25944;BME280;13742;49.306;8.636;2023-02-16T05:36:31;101664.13;;;0.37;100.00
25944;BME280;13742;49.306;8.636;2023-02-16T05:37:31;101664.77;;;0.37;100.00
25944;BME280;13742;49.306;8.636;2023-02-16T05:38:31;101664.42;;;0.36;100.00
25944;BME280;13742;49.306;8.636;2023-02-16T05:39:31;101656.83;;;0.34;100.00
25944;BME280;13742;49.306;8.636;2023-02-16T05:40:31;101662.47;;;0.33;100.00
25944;BME280;13742;49.306;8.636;2023-02-16T05:41:31;101659.33;;;0.32;100.00
25944;BME280;13742;49.306;8.636;2023-02-16T05:42:31;101657.50;;;0.33;100.00
25944;BME280;13742;49.306;8.636;2023-02-16T05:43:31;101652.39;;;0.33;100.00
25944;BME280;13742;49.306;8.636;2023-02-16T05:44:31;101651.74;;;0.33;100.00
25944;BME280;13742;49.306;8.636;2023-02-16T05:45:31;101653.95;;;0.33;100.00
25944;BME280;13742;49.306;8.636;2023-02-16T05:46:32;101651.50;;;0.33;100.00
25944;BME280;13742;49.306;8.636;2023-02-16T05:47:31;101654.32;;;0.34;100.00
25944;BME280;13742;49.306;8.636;2023-02-16T05:48:31;101653.80;;;0.34;100.00
25944;BME280;13742;49.306;8.636;2023-02-16T05:49:31;101653.83;;;0.34;100.00